sensor_id;sensor_type;location;lat;lon;timestamp;temperature;humidity
70421;SHT31;57848;51.938;15.520;2023-03-17T00:01:47;3.77;58.86
70421;SHT31;57848;51.938;15.520;2023-03-17T00:04:16;3.73;59.02
70421;SHT31;57848;51.938;15.520;2023-03-17T00:06:43;3.64;59.27
70421;SHT31;57848;51.938;15.520;2023-03-17T00:09:16;3.63;59.94
70421;SHT31;57848;51.938;15.520;2023-03-17T00:11:43;3.66;59.42
70421;SHT31;57848;51.938;15.520;2023-03-17T00:14:09;3.66;59.31
70421;SHT31;57848;51.938;15.520;2023-03-17T00:16:40;3.67;59.40
70421;SHT31;57848;51.938;15.520;2023-03-17T00:19:16;3.64;59.29
70421;SHT31;57848;51.938;15.520;2023-03-17T00:21:42;3.66;59.42
70421;SHT31;57848;51.938;15.520;2023-03-17T00:24:09;3.53;59.86
70421;SHT31;57848;51.938;15.520;2023-03-17T00:26:36;3.52;60.06
70421;SHT31;57848;51.938;15.520;2023-03-17T00:29:02;3.47;59.86
70421;SHT31;57848;51.938;15.520;2023-03-17T00:31:28;3.47;60.13
70421;SHT31;57848;51.938;15.520;2023-03-17T00:33:54;3.50;60.18
70421;SHT31;57848;51.938;15.520;2023-03-17T00:36:23;3.44;60.54
70421;SHT31;57848;51.938;15.520;2023-03-17T00:38:50;3.36;61.03
70421;SHT31;57848;51.938;15.520;2023-03-17T00:41:16;3.29;61.27
70421;SHT31;57848;51.938;15.520;2023-03-17T00:43:42;3.25;61.11
70421;SHT31;57848;51.938;15.520;2023-03-17T00:46:11;3.20;61.74
70421;SHT31;57848;51.938;15.520;2023-03-17T00:48:37;3.18;61.87
70421;SHT31;57848;51.938;15.520;2023-03-17T00:51:03;3.06;61.90
70421;SHT31;57848;51.938;15.520;2023-03-17T00:53:29;2.98;62.23
70421;SHT31;57848;51.938;15.520;2023-03-17T00:55:57;3.04;62.35
70421;SHT31;57848;51.938;15.520;2023-03-17T00:58:27;3.09;62.37
70421;SHT31;57848;51.938;15.520;2023-03-17T01:00:53;2.96;62.44
70421;SHT31;57848;51.938;15.520;2023-03-17T01:03:20;2.89;62.73
70421;SHT31;57848;51.938;15.520;2023-03-17T01:05:48;2.94;62.51
70421;SHT31;57848;51.938;15.520;2023-03-17T01:08:14;2.89;62.99
70421;SHT31;57848;51.938;15.520;2023-03-17T01:10:40;2.85;63.22
70421;SHT31;57848;51.938;15.520;2023-03-17T01:13:09;2.85;63.25
70421;SHT31;57848;51.938;15.520;2023-03-17T01:15:36;2.81;63.22
70421;SHT31;57848;51.938;15.520;2023-03-17T01:18:03;2.84;62.79
70421;SHT31;57848;51.938;15.520;2023-03-17T01:20:31;2.87;62.65
70421;SHT31;57848;51.938;15.520;2023-03-17T01:22:57;2.84;62.75
70421;SHT31;57848;51.938;15.520;2023-03-17T01:25:23;2.84;63.06
70421;SHT31;57848;51.938;15.520;2023-03-17T01:27:49;2.87;62.40
70421;SHT31;57848;51.938;15.520;2023-03-17T01:32:56;2.87;62.80
70421;SHT31;57848;51.938;15.520;2023-03-17T01:35:24;2.77;63.46
70421;SHT31;57848;51.938;15.520;2023-03-17T01:37:50;2.67;63.72
70421;SHT31;57848;51.938;15.520;2023-03-17T01:40:21;2.68;63.50
70421;SHT31;57848;51.938;15.520;2023-03-17T01:42:57;2.67;63.60
70421;SHT31;57848;51.938;15.520;2023-03-17T01:48:30;2.67;63.87
70421;SHT31;57848;51.938;15.520;2023-03-17T01:50:58;2.60;63.96
70421;SHT31;57848;51.938;15.520;2023-03-17T01:53:24;2.54;64.36
70421;SHT31;57848;51.938;15.520;2023-03-17T01:55:50;2.53;64.60
70421;SHT31;57848;51.938;15.520;2023-03-17T01:58:18;2.47;64.64
70421;SHT31;57848;51.938;15.520;2023-03-17T02:00:45;2.44;64.79
70421;SHT31;57848;51.938;15.520;2023-03-17T02:03:11;2.36;65.20
70421;SHT31;57848;51.938;15.520;2023-03-17T02:05:37;2.38;65.18
70421;SHT31;57848;51.938;15.520;2023-03-17T02:08:11;2.26;65.56
70421;SHT31;57848;51.938;15.520;2023-03-17T02:10:38;2.40;65.35
70421;SHT31;57848;51.938;15.520;2023-03-17T02:13:06;2.45;65.22
70421;SHT31;57848;51.938;15.520;2023-03-17T02:15:38;2.45;65.24
70421;SHT31;57848;51.938;15.520;2023-03-17T02:18:05;2.47;65.26
70421;SHT31;57848;51.938;15.520;2023-03-17T02:22:57;2.47;65.42
70421;SHT31;57848;51.938;15.520;2023-03-17T02:25:25;2.43;65.52
70421;SHT31;57848;51.938;15.520;2023-03-17T02:28:01;2.45;65.61
70421;SHT31;57848;51.938;15.520;2023-03-17T02:30:30;2.51;65.58
70421;SHT31;57848;51.938;15.520;2023-03-17T02:32:57;2.47;65.56
70421;SHT31;57848;51.938;15.520;2023-03-17T02:35:23;2.44;65.65
70421;SHT31;57848;51.938;15.520;2023-03-17T02:37:49;2.43;65.91
70421;SHT31;57848;51.938;15.520;2023-03-17T02:40:14;2.38;65.94
70421;SHT31;57848;51.938;15.520;2023-03-17T02:42:40;2.33;66.18
70421;SHT31;57848;51.938;15.520;2023-03-17T02:45:07;2.27;66.38
70421;SHT31;57848;51.938;15.520;2023-03-17T02:47:34;2.23;66.61
70421;SHT31;57848;51.938;15.520;2023-03-17T02:50:00;2.20;66.63
70421;SHT31;57848;51.938;15.520;2023-03-17T02:52:25;2.24;66.50
70421;SHT31;57848;51.938;15.520;2023-03-17T02:54:51;2.22;66.56
70421;SHT31;57848;51.938;15.520;2023-03-17T02:57:16;2.15;66.93
70421;SHT31;57848;51.938;15.520;2023-03-17T02:59:42;2.15;66.88
70421;SHT31;57848;51.938;15.520;2023-03-17T03:02:08;2.24;66.81
70421;SHT31;57848;51.938;15.520;2023-03-17T03:04:33;2.15;67.01
70421;SHT31;57848;51.938;15.520;2023-03-17T03:07:00;2.12;67.02
70421;SHT31;57848;51.938;15.520;2023-03-17T03:09:25;2.12;66.95
70421;SHT31;57848;51.938;15.520;2023-03-17T03:11:51;2.12;67.12
70421;SHT31;57848;51.938;15.520;2023-03-17T03:14:16;2.03;67.13
70421;SHT31;57848;51.938;15.520;2023-03-17T03:16:42;2.12;66.92
70421;SHT31;57848;51.938;15.520;2023-03-17T03:19:08;2.07;67.06
70421;SHT31;57848;51.938;15.520;2023-03-17T03:21:34;2.09;67.13
70421;SHT31;57848;51.938;15.520;2023-03-17T03:23:59;2.05;67.29
70421;SHT31;57848;51.938;15.520;2023-03-17T03:26:25;2.17;67.26
70421;SHT31;57848;51.938;15.520;2023-03-17T03:28:51;2.13;67.09
70421;SHT31;57848;51.938;15.520;2023-03-17T03:31:16;2.15;67.06
70421;SHT31;57848;51.938;15.520;2023-03-17T03:33:42;2.16;67.17
70421;SHT31;57848;51.938;15.520;2023-03-17T03:36:08;2.16;67.10
70421;SHT31;57848;51.938;15.520;2023-03-17T03:38:34;2.20;66.81
70421;SHT31;57848;51.938;15.520;2023-03-17T03:40:59;2.23;66.90
70421;SHT31;57848;51.938;15.520;2023-03-17T03:43:25;2.22;66.78
70421;SHT31;57848;51.938;15.520;2023-03-17T03:45:51;2.23;66.94
70421;SHT31;57848;51.938;15.520;2023-03-17T03:48:17;2.30;66.88
70421;SHT31;57848;51.938;15.520;2023-03-17T03:50:43;2.26;66.99
70421;SHT31;57848;51.938;15.520;2023-03-17T03:53:08;2.23;66.98
70421;SHT31;57848;51.938;15.520;2023-03-17T03:55:34;2.26;67.00
70421;SHT31;57848;51.938;15.520;2023-03-17T03:57:59;2.22;67.02
70421;SHT31;57848;51.938;15.520;2023-03-17T04:00:25;2.22;67.08
70421;SHT31;57848;51.938;15.520;2023-03-17T04:02:52;2.23;67.07
70421;SHT31;57848;51.938;15.520;2023-03-17T04:05:17;2.23;67.19
70421;SHT31;57848;51.938;15.520;2023-03-17T04:07:44;2.29;67.09
70421;SHT31;57848;51.938;15.520;2023-03-17T04:10:11;2.26;67.21
70421;SHT31;57848;51.938;15.520;2023-03-17T04:12:37;2.26;67.25
70421;SHT31;57848;51.938;15.520;2023-03-17T04:15:04;2.20;67.29
70421;SHT31;57848;51.938;15.520;2023-03-17T04:17:30;2.17;67.47
70421;SHT31;57848;51.938;15.520;2023-03-17T04:19:56;2.20;67.32
70421;SHT31;57848;51.938;15.520;2023-03-17T04:22:21;2.22;67.51
70421;SHT31;57848;51.938;15.520;2023-03-17T04:24:46;2.20;67.44
70421;SHT31;57848;51.938;15.520;2023-03-17T04:27:12;2.22;67.48
70421;SHT31;57848;51.938;15.520;2023-03-17T04:29:40;2.23;67.47
70421;SHT31;57848;51.938;15.520;2023-03-17T04:32:07;2.23;67.52
70421;SHT31;57848;51.938;15.520;2023-03-17T04:34:32;2.17;67.67
70421;SHT31;57848;51.938;15.520;2023-03-17T04:36:58;2.16;67.84
70421;SHT31;57848;51.938;15.520;2023-03-17T04:39:23;2.17;67.90
70421;SHT31;57848;51.938;15.520;2023-03-17T04:41:49;2.15;67.84
70421;SHT31;57848;51.938;15.520;2023-03-17T04:44:15;2.10;68.14
70421;SHT31;57848;51.938;15.520;2023-03-17T04:46:40;2.09;68.02
70421;SHT31;57848;51.938;15.520;2023-03-17T04:49:06;2.05;68.17
70421;SHT31;57848;51.938;15.520;2023-03-17T04:51:32;2.03;68.41
70421;SHT31;57848;51.938;15.520;2023-03-17T04:53:59;2.06;68.37
70421;SHT31;57848;51.938;15.520;2023-03-17T04:56:25;2.05;68.50
70421;SHT31;57848;51.938;15.520;2023-03-17T04:58:51;2.09;68.52
70421;SHT31;57848;51.938;15.520;2023-03-17T05:01:16;2.09;68.67
70421;SHT31;57848;51.938;15.520;2023-03-17T05:03:42;2.06;68.58
70421;SHT31;57848;51.938;15.520;2023-03-17T05:06:07;2.03;68.89
70421;SHT31;57848;51.938;15.520;2023-03-17T05:08:32;2.05;68.78
70421;SHT31;57848;51.938;15.520;2023-03-17T05:10:58;1.96;68.89
70421;SHT31;57848;51.938;15.520;2023-03-17T05:13:24;1.92;69.37
70421;SHT31;57848;51.938;15.520;2023-03-17T05:15:51;2.01;69.02
70421;SHT31;57848;51.938;15.520;2023-03-17T05:18:18;2.05;68.91
70421;SHT31;57848;51.938;15.520;2023-03-17T05:20:43;2.05;68.87
70421;SHT31;57848;51.938;15.520;2023-03-17T05:23:09;2.03;68.91
70421;SHT31;57848;51.938;15.520;2023-03-17T05:25:35;2.02;68.96
70421;SHT31;57848;51.938;15.520;2023-03-17T05:28:01;2.07;68.70
70421;SHT31;57848;51.938;15.520;2023-03-17T05:30:27;2.10;68.50
70421;SHT31;57848;51.938;15.520;2023-03-17T05:32:52;2.15;68.67
70421;SHT31;57848;51.938;15.520;2023-03-17T05:35:18;2.19;68.46
70421;SHT31;57848;51.938;15.520;2023-03-17T05:37:44;2.24;68.40
70421;SHT31;57848;51.938;15.520;2023-03-17T05:40:11;2.24;68.34
70421;SHT31;57848;51.938;15.520;2023-03-17T05:42:37;2.33;68.13
70421;SHT31;57848;51.938;15.520;2023-03-17T05:45:04;2.40;67.91
70421;SHT31;57848;51.938;15.520;2023-03-17T05:47:30;2.47;67.75
70421;SHT31;57848;51.938;15.520;2023-03-17T05:49:56;2.57;67.37
70421;SHT31;57848;51.938;15.520;2023-03-17T05:52:21;2.55;67.47
70421;SHT31;57848;51.938;15.520;2023-03-17T05:54:47;2.60;67.29
70421;SHT31;57848;51.938;15.520;2023-03-17T05:57:14;2.64;67.24
70421;SHT31;57848;51.938;15.520;2023-03-17T05:59:40;2.70;67.02
70421;SHT31;57848;51.938;15.520;2023-03-17T06:02:07;2.74;66.88
70421;SHT31;57848;51.938;15.520;2023-03-17T06:04:33;2.78;66.78
70421;SHT31;57848;51.938;15.520;2023-03-17T06:06:58;2.80;66.65
70421;SHT31;57848;51.938;15.520;2023-03-17T06:09:24;2.87;66.51
70421;SHT31;57848;51.938;15.520;2023-03-17T06:11:49;2.92;66.36
70421;SHT31;57848;51.938;15.520;2023-03-17T06:14:15;2.98;66.32
70421;SHT31;57848;51.938;15.520;2023-03-17T06:16:41;3.01;66.02
70421;SHT31;57848;51.938;15.520;2023-03-17T06:19:06;3.09;65.87
70421;SHT31;57848;51.938;15.520;2023-03-17T06:21:32;3.02;65.99
70421;SHT31;57848;51.938;15.520;2023-03-17T06:23:57;3.08;65.60
70421;SHT31;57848;51.938;15.520;2023-03-17T06:26:22;3.13;65.63
70421;SHT31;57848;51.938;15.520;2023-03-17T06:28:48;3.19;65.49
70421;SHT31;57848;51.938;15.520;2023-03-17T06:31:13;3.25;64.98
70421;SHT31;57848;51.938;15.520;2023-03-17T06:33:39;3.27;64.86
70421;SHT31;57848;51.938;15.520;2023-03-17T06:36:05;3.29;64.58
70421;SHT31;57848;51.938;15.520;2023-03-17T06:38:32;3.37;64.37
70421;SHT31;57848;51.938;15.520;2023-03-17T06:40:57;3.40;64.32
70421;SHT31;57848;51.938;15.520;2023-03-17T06:43:23;3.46;64.16
70421;SHT31;57848;51.938;15.520;2023-03-17T06:45:49;3.52;63.81
70421;SHT31;57848;51.938;15.520;2023-03-17T06:48:14;3.64;63.30
70421;SHT31;57848;51.938;15.520;2023-03-17T06:50:40;3.63;63.34
70421;SHT31;57848;51.938;15.520;2023-03-17T06:53:05;3.70;63.29
70421;SHT31;57848;51.938;15.520;2023-03-17T06:55:31;3.69;63.36
70421;SHT31;57848;51.938;15.520;2023-03-17T06:57:58;3.71;63.22
70421;SHT31;57848;51.938;15.520;2023-03-17T07:00:24;3.78;62.91
70421;SHT31;57848;51.938;15.520;2023-03-17T07:02:50;3.87;62.89
70421;SHT31;57848;51.938;15.520;2023-03-17T07:05:16;3.87;62.98
70421;SHT31;57848;51.938;15.520;2023-03-17T07:07:42;3.98;62.76
70421;SHT31;57848;51.938;15.520;2023-03-17T07:10:09;3.99;62.57
70421;SHT31;57848;51.938;15.520;2023-03-17T07:12:35;3.99;62.93
70421;SHT31;57848;51.938;15.520;2023-03-17T07:15:01;4.04;62.39
70421;SHT31;57848;51.938;15.520;2023-03-17T07:17:27;4.15;62.33
70421;SHT31;57848;51.938;15.520;2023-03-17T07:19:53;4.25;62.15
70421;SHT31;57848;51.938;15.520;2023-03-17T07:22:18;4.38;61.71
70421;SHT31;57848;51.938;15.520;2023-03-17T07:24:43;4.45;61.97
70421;SHT31;57848;51.938;15.520;2023-03-17T07:27:11;4.43;61.54
70421;SHT31;57848;51.938;15.520;2023-03-17T07:29:36;4.48;61.38
70421;SHT31;57848;51.938;15.520;2023-03-17T07:32:02;4.60;61.06
70421;SHT31;57848;51.938;15.520;2023-03-17T07:34:30;4.65;61.30
70421;SHT31;57848;51.938;15.520;2023-03-17T07:36:56;4.72;61.19
70421;SHT31;57848;51.938;15.520;2023-03-17T07:39:21;4.80;60.78
70421;SHT31;57848;51.938;15.520;2023-03-17T07:41:47;4.88;60.45
70421;SHT31;57848;51.938;15.520;2023-03-17T07:44:17;4.91;60.33
70421;SHT31;57848;51.938;15.520;2023-03-17T07:46:44;5.05;60.07
70421;SHT31;57848;51.938;15.520;2023-03-17T07:49:10;5.08;59.93
70421;SHT31;57848;51.938;15.520;2023-03-17T07:51:36;5.10;59.90
70421;SHT31;57848;51.938;15.520;2023-03-17T07:54:03;5.17;59.59
70421;SHT31;57848;51.938;15.520;2023-03-17T07:56:31;5.21;59.21
70421;SHT31;57848;51.938;15.520;2023-03-17T07:58:56;5.28;59.24
70421;SHT31;57848;51.938;15.520;2023-03-17T08:01:24;5.31;59.75
70421;SHT31;57848;51.938;15.520;2023-03-17T08:03:50;5.48;59.68
70421;SHT31;57848;51.938;15.520;2023-03-17T08:06:15;5.54;59.08
70421;SHT31;57848;51.938;15.520;2023-03-17T08:08:41;5.60;58.85
70421;SHT31;57848;51.938;15.520;2023-03-17T08:11:06;5.76;58.29
70421;SHT31;57848;51.938;15.520;2023-03-17T08:13:32;5.72;58.53
70421;SHT31;57848;51.938;15.520;2023-03-17T08:15:58;5.77;58.67
70421;SHT31;57848;51.938;15.520;2023-03-17T08:18:25;5.92;58.21
70421;SHT31;57848;51.938;15.520;2023-03-17T08:20:50;5.97;57.56
70421;SHT31;57848;51.938;15.520;2023-03-17T08:23:19;6.02;57.33
70421;SHT31;57848;51.938;15.520;2023-03-17T08:25:46;6.07;57.65
70421;SHT31;57848;51.938;15.520;2023-03-17T08:28:12;6.18;56.93
70421;SHT31;57848;51.938;15.520;2023-03-17T08:30:40;6.25;56.99
70421;SHT31;57848;51.938;15.520;2023-03-17T08:33:07;6.38;56.82
70421;SHT31;57848;51.938;15.520;2023-03-17T08:35:33;6.35;56.71
70421;SHT31;57848;51.938;15.520;2023-03-17T08:38:00;6.45;56.76
70421;SHT31;57848;51.938;15.520;2023-03-17T08:40:26;6.79;56.26
70421;SHT31;57848;51.938;15.520;2023-03-17T08:42:51;6.96;55.37
70421;SHT31;57848;51.938;15.520;2023-03-17T08:45:17;7.17;54.23
70421;SHT31;57848;51.938;15.520;2023-03-17T08:47:43;7.24;54.39
70421;SHT31;57848;51.938;15.520;2023-03-17T08:50:14;7.34;54.07
70421;SHT31;57848;51.938;15.520;2023-03-17T08:52:40;7.19;54.20
70421;SHT31;57848;51.938;15.520;2023-03-17T08:55:06;7.34;53.73
70421;SHT31;57848;51.938;15.520;2023-03-17T08:57:33;7.26;53.47
70421;SHT31;57848;51.938;15.520;2023-03-17T08:59:59;7.31;53.93
70421;SHT31;57848;51.938;15.520;2023-03-17T09:02:25;7.31;54.14
70421;SHT31;57848;51.938;15.520;2023-03-17T09:04:50;7.38;53.67
70421;SHT31;57848;51.938;15.520;2023-03-17T09:07:16;7.36;53.46
70421;SHT31;57848;51.938;15.520;2023-03-17T09:09:41;7.31;53.92
70421;SHT31;57848;51.938;15.520;2023-03-17T09:12:07;7.47;54.94
70421;SHT31;57848;51.938;15.520;2023-03-17T09:14:33;7.58;54.21
70421;SHT31;57848;51.938;15.520;2023-03-17T09:16:59;7.58;53.83
70421;SHT31;57848;51.938;15.520;2023-03-17T09:19:24;7.74;53.99
70421;SHT31;57848;51.938;15.520;2023-03-17T09:21:50;7.77;53.75
70421;SHT31;57848;51.938;15.520;2023-03-17T09:24:17;8.01;53.45
70421;SHT31;57848;51.938;15.520;2023-03-17T09:26:43;8.02;52.76
70421;SHT31;57848;51.938;15.520;2023-03-17T09:29:08;8.23;52.70
70421;SHT31;57848;51.938;15.520;2023-03-17T09:31:34;8.36;53.03
70421;SHT31;57848;51.938;15.520;2023-03-17T09:34:03;8.39;52.33
70421;SHT31;57848;51.938;15.520;2023-03-17T09:36:30;8.61;52.55
70421;SHT31;57848;51.938;15.520;2023-03-17T09:38:58;8.88;51.96
70421;SHT31;57848;51.938;15.520;2023-03-17T09:41:45;9.15;50.62
70421;SHT31;57848;51.938;15.520;2023-03-17T09:47:05;9.22;48.93
70421;SHT31;57848;51.938;15.520;2023-03-17T09:50:10;9.46;48.79
70421;SHT31;57848;51.938;15.520;2023-03-17T09:52:37;9.56;49.18
70421;SHT31;57848;51.938;15.520;2023-03-17T09:55:04;9.64;48.47
70421;SHT31;57848;51.938;15.520;2023-03-17T09:57:35;10.11;48.62
70421;SHT31;57848;51.938;15.520;2023-03-17T10:00:16;10.38;46.81
70421;SHT31;57848;51.938;15.520;2023-03-17T10:02:43;11.47;45.91
70421;SHT31;57848;51.938;15.520;2023-03-17T10:08:00;12.74;42.68
70421;SHT31;57848;51.938;15.520;2023-03-17T10:13:12;13.87;40.35
70421;SHT31;57848;51.938;15.520;2023-03-17T10:16:09;14.44;38.47
70421;SHT31;57848;51.938;15.520;2023-03-17T10:18:44;14.86;36.20
70421;SHT31;57848;51.938;15.520;2023-03-17T10:21:16;15.77;34.70
70421;SHT31;57848;51.938;15.520;2023-03-17T10:23:42;16.05;34.98
70421;SHT31;57848;51.938;15.520;2023-03-17T10:26:36;15.98;34.06
70421;SHT31;57848;51.938;15.520;2023-03-17T10:29:10;16.49;34.41
70421;SHT31;57848;51.938;15.520;2023-03-17T10:31:38;16.19;33.55
70421;SHT31;57848;51.938;15.520;2023-03-17T10:34:18;16.88;33.77
70421;SHT31;57848;51.938;15.520;2023-03-17T10:36:48;16.36;32.56
70421;SHT31;57848;51.938;15.520;2023-03-17T10:39:21;16.52;33.04
70421;SHT31;57848;51.938;15.520;2023-03-17T10:46:54;16.59;34.32
70421;SHT31;57848;51.938;15.520;2023-03-17T10:49:20;16.01;34.29
70421;SHT31;57848;51.938;15.520;2023-03-17T10:51:51;15.36;34.90
70421;SHT31;57848;51.938;15.520;2023-03-17T10:54:22;14.10;35.58
70421;SHT31;57848;51.938;15.520;2023-03-17T10:57:01;14.57;35.80
70421;SHT31;57848;51.938;15.520;2023-03-17T10:59:29;14.99;35.39
70421;SHT31;57848;51.938;15.520;2023-03-17T11:01:59;15.97;33.41
70421;SHT31;57848;51.938;15.520;2023-03-17T11:04:31;17.07;32.33
70421;SHT31;57848;51.938;15.520;2023-03-17T11:06:59;16.85;32.49
70421;SHT31;57848;51.938;15.520;2023-03-17T11:09:33;17.72;31.06
70421;SHT31;57848;51.938;15.520;2023-03-17T11:12:05;18.08;30.18
70421;SHT31;57848;51.938;15.520;2023-03-17T11:14:32;18.58;30.88
70421;SHT31;57848;51.938;15.520;2023-03-17T11:17:11;17.80;31.05
70421;SHT31;57848;51.938;15.520;2023-03-17T11:20:14;17.25;32.16
70421;SHT31;57848;51.938;15.520;2023-03-17T11:25:38;17.73;30.70
70421;SHT31;57848;51.938;15.520;2023-03-17T11:28:20;18.89;30.72
70421;SHT31;57848;51.938;15.520;2023-03-17T11:31:07;19.09;30.56
70421;SHT31;57848;51.938;15.520;2023-03-17T11:33:51;19.50;28.97
70421;SHT31;57848;51.938;15.520;2023-03-17T11:36:46;20.15;29.98
70421;SHT31;57848;51.938;15.520;2023-03-17T11:39:20;20.39;29.13
70421;SHT31;57848;51.938;15.520;2023-03-17T11:42:03;20.94;28.48
70421;SHT31;57848;51.938;15.520;2023-03-17T11:47:07;21.39;27.97
70421;SHT31;57848;51.938;15.520;2023-03-17T11:49:38;22.03;26.51
70421;SHT31;57848;51.938;15.520;2023-03-17T11:55:11;22.06;27.18
70421;SHT31;57848;51.938;15.520;2023-03-17T12:00:17;22.41;25.91
70421;SHT31;57848;51.938;15.520;2023-03-17T12:02:53;22.51;26.45
70421;SHT31;57848;51.938;15.520;2023-03-17T12:05:24;21.97;26.77
70421;SHT31;57848;51.938;15.520;2023-03-17T12:07:54;21.89;27.15
70421;SHT31;57848;51.938;15.520;2023-03-17T12:10:29;21.78;27.16
70421;SHT31;57848;51.938;15.520;2023-03-17T12:13:07;22.69;26.82
70421;SHT31;57848;51.938;15.520;2023-03-17T12:15:38;22.36;25.70
70421;SHT31;57848;51.938;15.520;2023-03-17T12:18:15;22.06;26.36
70421;SHT31;57848;51.938;15.520;2023-03-17T12:20:56;21.58;26.21
70421;SHT31;57848;51.938;15.520;2023-03-17T12:26:14;20.97;27.63
70421;SHT31;57848;51.938;15.520;2023-03-17T12:31:19;19.26;29.09
70421;SHT31;57848;51.938;15.520;2023-03-17T12:36:19;18.44;32.04
70421;SHT31;57848;51.938;15.520;2023-03-17T12:39:18;17.97;30.79
70421;SHT31;57848;51.938;15.520;2023-03-17T12:44:42;17.03;30.97
70421;SHT31;57848;51.938;15.520;2023-03-17T12:47:29;16.77;31.44
70421;SHT31;57848;51.938;15.520;2023-03-17T12:55:35;16.09;30.63
70421;SHT31;57848;51.938;15.520;2023-03-17T12:58:03;16.04;30.70
70421;SHT31;57848;51.938;15.520;2023-03-17T13:00:32;15.75;31.87
70421;SHT31;57848;51.938;15.520;2023-03-17T13:05:45;15.41;31.85
70421;SHT31;57848;51.938;15.520;2023-03-17T13:08:16;15.17;31.98
70421;SHT31;57848;51.938;15.520;2023-03-17T13:10:45;15.30;32.23
70421;SHT31;57848;51.938;15.520;2023-03-17T13:16:25;15.03;33.51
70421;SHT31;57848;51.938;15.520;2023-03-17T13:21:30;15.14;32.68
70421;SHT31;57848;51.938;15.520;2023-03-17T13:26:58;15.19;34.45
70421;SHT31;57848;51.938;15.520;2023-03-17T13:29:41;15.09;33.24
70421;SHT31;57848;51.938;15.520;2023-03-17T13:34:53;15.30;34.14
70421;SHT31;57848;51.938;15.520;2023-03-17T13:37:32;15.55;32.96
70421;SHT31;57848;51.938;15.520;2023-03-17T13:43:05;15.50;33.17
70421;SHT31;57848;51.938;15.520;2023-03-17T13:45:38;15.17;32.33
70421;SHT31;57848;51.938;15.520;2023-03-17T13:48:26;14.95;33.47
70421;SHT31;57848;51.938;15.520;2023-03-17T13:50:57;15.04;33.50
70421;SHT31;57848;51.938;15.520;2023-03-17T13:53:26;14.82;33.34
70421;SHT31;57848;51.938;15.520;2023-03-17T13:58:33;14.76;34.71
70421;SHT31;57848;51.938;15.520;2023-03-17T14:01:02;14.58;34.14
70421;SHT31;57848;51.938;15.520;2023-03-17T14:03:39;14.51;34.39
70421;SHT31;57848;51.938;15.520;2023-03-17T14:06:07;14.34;35.02
70421;SHT31;57848;51.938;15.520;2023-03-17T14:08:43;14.10;34.99
70421;SHT31;57848;51.938;15.520;2023-03-17T14:11:19;14.03;34.96
70421;SHT31;57848;51.938;15.520;2023-03-17T14:14:07;14.09;35.87
70421;SHT31;57848;51.938;15.520;2023-03-17T14:16:59;14.07;35.14
70421;SHT31;57848;51.938;15.520;2023-03-17T14:19:28;14.06;35.98
70421;SHT31;57848;51.938;15.520;2023-03-17T14:22:00;14.07;35.27
70421;SHT31;57848;51.938;15.520;2023-03-17T14:24:31;14.01;35.41
70421;SHT31;57848;51.938;15.520;2023-03-17T14:27:04;13.91;35.65
70421;SHT31;57848;51.938;15.520;2023-03-17T14:29:32;13.93;35.44
70421;SHT31;57848;51.938;15.520;2023-03-17T14:32:05;13.84;35.84
70421;SHT31;57848;51.938;15.520;2023-03-17T14:34:31;13.87;35.56
70421;SHT31;57848;51.938;15.520;2023-03-17T14:37:03;13.81;35.79
70421;SHT31;57848;51.938;15.520;2023-03-17T14:39:29;13.76;36.01
70421;SHT31;57848;51.938;15.520;2023-03-17T14:42:00;13.69;36.29
70421;SHT31;57848;51.938;15.520;2023-03-17T14:44:27;13.80;35.63
70421;SHT31;57848;51.938;15.520;2023-03-17T14:47:01;13.77;35.06
70421;SHT31;57848;51.938;15.520;2023-03-17T14:49:26;13.70;35.83
70421;SHT31;57848;51.938;15.520;2023-03-17T14:51:52;13.66;36.57
70421;SHT31;57848;51.938;15.520;2023-03-17T14:54:20;13.62;35.59
70421;SHT31;57848;51.938;15.520;2023-03-17T14:56:50;13.60;35.57
70421;SHT31;57848;51.938;15.520;2023-03-17T14:59:25;13.55;35.33
70421;SHT31;57848;51.938;15.520;2023-03-17T15:01:54;13.49;35.55
70421;SHT31;57848;51.938;15.520;2023-03-17T15:04:23;13.49;35.69
70421;SHT31;57848;51.938;15.520;2023-03-17T15:07:00;13.58;36.69
70421;SHT31;57848;51.938;15.520;2023-03-17T15:09:33;13.56;36.18
70421;SHT31;57848;51.938;15.520;2023-03-17T15:14:36;13.58;37.67
70421;SHT31;57848;51.938;15.520;2023-03-17T15:17:06;13.51;36.90
70421;SHT31;57848;51.938;15.520;2023-03-17T15:19:41;13.55;36.74
70421;SHT31;57848;51.938;15.520;2023-03-17T15:27:39;13.32;37.87
70421;SHT31;57848;51.938;15.520;2023-03-17T15:30:04;13.36;38.59
70421;SHT31;57848;51.938;15.520;2023-03-17T15:32:30;13.43;38.59
70421;SHT31;57848;51.938;15.520;2023-03-17T15:34:56;13.43;39.01
70421;SHT31;57848;51.938;15.520;2023-03-17T15:37:25;13.43;37.76
70421;SHT31;57848;51.938;15.520;2023-03-17T15:39:52;13.51;37.48
70421;SHT31;57848;51.938;15.520;2023-03-17T15:42:22;13.43;38.83
70421;SHT31;57848;51.938;15.520;2023-03-17T15:44:49;13.49;37.17
70421;SHT31;57848;51.938;15.520;2023-03-17T15:47:16;13.51;37.52
70421;SHT31;57848;51.938;15.520;2023-03-17T15:49:44;13.45;38.31
70421;SHT31;57848;51.938;15.520;2023-03-17T15:52:36;13.41;38.98
70421;SHT31;57848;51.938;15.520;2023-03-17T15:55:01;13.38;38.18
70421;SHT31;57848;51.938;15.520;2023-03-17T15:57:26;13.23;39.19
70421;SHT31;57848;51.938;15.520;2023-03-17T15:59:52;13.14;39.55
70421;SHT31;57848;51.938;15.520;2023-03-17T16:02:31;13.00;39.57
70421;SHT31;57848;51.938;15.520;2023-03-17T16:04:58;12.95;40.29
70421;SHT31;57848;51.938;15.520;2023-03-17T16:07:25;12.94;40.50
70421;SHT31;57848;51.938;15.520;2023-03-17T16:09:51;12.81;41.53
70421;SHT31;57848;51.938;15.520;2023-03-17T16:12:17;12.67;42.39
70421;SHT31;57848;51.938;15.520;2023-03-17T16:14:43;12.52;42.58
70421;SHT31;57848;51.938;15.520;2023-03-17T16:17:18;12.43;43.11
70421;SHT31;57848;51.938;15.520;2023-03-17T16:19:44;12.33;43.87
70421;SHT31;57848;51.938;15.520;2023-03-17T16:22:41;12.25;43.91
70421;SHT31;57848;51.938;15.520;2023-03-17T16:27:42;12.01;44.87
70421;SHT31;57848;51.938;15.520;2023-03-17T16:30:17;11.98;44.89
70421;SHT31;57848;51.938;15.520;2023-03-17T16:32:42;11.89;45.00
70421;SHT31;57848;51.938;15.520;2023-03-17T16:35:19;11.81;45.36
70421;SHT31;57848;51.938;15.520;2023-03-17T16:37:46;11.78;45.29
70421;SHT31;57848;51.938;15.520;2023-03-17T16:40:38;11.61;46.39
70421;SHT31;57848;51.938;15.520;2023-03-17T16:43:06;11.58;45.93
70421;SHT31;57848;51.938;15.520;2023-03-17T16:45:38;11.48;46.01
70421;SHT31;57848;51.938;15.520;2023-03-17T16:48:03;11.35;46.76
70421;SHT31;57848;51.938;15.520;2023-03-17T16:50:31;11.27;47.47
70421;SHT31;57848;51.938;15.520;2023-03-17T16:52:57;11.22;46.83
70421;SHT31;57848;51.938;15.520;2023-03-17T16:55:24;11.19;47.48